Time;durP1;ratioP1;P1;durP2;ratioP2;P2;SDS_P1;SDS_P2;PMS_P1;PMS_P2;Temp;Humidity;BMP_temperature;BMP_pressure;BME280_temperature;BME280_humidity;BME280_pressure;Samples;Min_cycle;Max_cycle;Signal;HPM_P1;HPM_P2
2021/03/22 00:01:11;;;;;;;14.97;4.40;;;;;;;;;;5010554;28;20427;-51
2021/03/22 00:03:37;;;;;;;13.43;4.35;;;;;;;;;;5008669;28;20431;-51
2021/03/22 00:06:03;;;;;;;18.60;5.10;;;;;;;;;;5010592;28;20262;-51
2021/03/22 00:08:30;;;;;;;19.20;4.05;;;;;;;;;;5010358;28;20178;-51
2021/03/22 00:10:57;;;;;;;27.92;4.60;;;;;;;;;;5014351;28;20229;-51
2021/03/22 00:13:24;;;;;;;15.20;4.18;;;;;;;;;;5011437;28;20692;-52
2021/03/22 00:15:50;;;;;;;21.70;4.75;;;;;;;;;;5014050;28;20283;-50
2021/03/22 00:18:22;;;;;;;19.38;4.70;;;;;;;;;;5014023;28;20640;-51
2021/03/22 00:20:49;;;;;;;19.77;5.47;;;;;;;;;;5014108;28;20226;-51
2021/03/22 00:23:15;;;;;;;20.52;4.70;;;;;;;;;;5014084;28;20211;-51
2021/03/22 00:25:41;;;;;;;17.13;4.90;;;;;;;;;;5014193;28;20169;-53
2021/03/22 00:28:09;;;;;;;20.10;4.83;;;;;;;;;;5013915;28;20214;-52
2021/03/22 00:30:36;;;;;;;16.83;3.80;;;;;;;;;;5014095;28;20430;-51
2021/03/22 00:33:05;;;;;;;15.57;4.22;;;;;;;;;;5011982;28;20196;-51
2021/03/22 00:35:32;;;;;;;16.05;3.42;;;;;;;;;;5014230;28;20250;-51
2021/03/22 00:37:58;;;;;;;19.35;4.40;;;;;;;;;;5014094;28;20255;-53
2021/03/22 00:40:25;;;;;;;34.27;6.87;;;;;;;;;;5013827;28;20810;-53
2021/03/22 00:42:51;;;;;;;19.63;4.38;;;;;;;;;;5013882;28;21072;-51
2021/03/22 00:45:18;;;;;;;16.73;4.67;;;;;;;;;;5013799;28;20175;-51
2021/03/22 00:47:44;;;;;;;16.08;4.30;;;;;;;;;;5013555;28;20411;-52
2021/03/22 00:50:20;;;;;;;18.80;4.50;;;;;;;;;;5013220;28;20589;-53
2021/03/22 00:52:46;;;;;;;20.70;4.28;;;;;;;;;;5013602;28;20401;-51
2021/03/22 00:55:12;;;;;;;14.00;3.93;;;;;;;;;;5013525;28;20173;-52
2021/03/22 00:57:38;;;;;;;19.50;3.80;;;;;;;;;;5013374;28;20410;-52
2021/03/22 01:00:05;;;;;;;24.00;4.80;;;;;;;;;;5013321;28;20182;-52
2021/03/22 01:02:31;;;;;;;12.13;3.75;;;;;;;;;;5013497;28;20430;-50
2021/03/22 01:04:57;;;;;;;24.83;4.73;;;;;;;;;;5011519;28;20241;-51
2021/03/22 01:07:23;;;;;;;16.87;4.40;;;;;;;;;;5013201;28;20418;-51
2021/03/22 01:09:49;;;;;;;18.15;4.53;;;;;;;;;;5013126;28;20435;-51
2021/03/22 01:12:15;;;;;;;14.33;3.90;;;;;;;;;;5013186;28;20228;-51
2021/03/22 01:14:41;;;;;;;11.97;3.47;;;;;;;;;;5013091;28;20457;-52
2021/03/22 01:17:07;;;;;;;20.30;4.10;;;;;;;;;;5013037;28;20409;-53
2021/03/22 01:19:33;;;;;;;19.60;3.55;;;;;;;;;;5012615;28;20403;-51
2021/03/22 01:22:00;;;;;;;16.20;3.70;;;;;;;;;;5012939;28;20188;-51
2021/03/22 01:24:27;;;;;;;21.83;5.18;;;;;;;;;;5013044;28;20403;-51
2021/03/22 01:26:54;;;;;;;20.52;4.47;;;;;;;;;;5012899;28;20180;-51
2021/03/22 01:29:23;;;;;;;28.30;5.47;;;;;;;;;;5012773;28;20195;-51
2021/03/22 01:31:49;;;;;;;11.80;3.53;;;;;;;;;;5012683;28;20668;-51
2021/03/22 01:34:15;;;;;;;13.75;3.53;;;;;;;;;;5011604;28;20208;-51
2021/03/22 01:36:42;;;;;;;20.45;4.57;;;;;;;;;;5012716;28;20169;-51
2021/03/22 01:39:10;;;;;;;37.30;4.15;;;;;;;;;;5012576;28;20164;-50
2021/03/22 01:41:45;;;;;;;13.45;4.07;;;;;;;;;;5012449;28;20252;-51
2021/03/22 01:44:14;;;;;;;19.85;4.13;;;;;;;;;;5012613;28;20179;-51
2021/03/22 01:46:45;;;;;;;20.20;4.10;;;;;;;;;;5012415;28;20180;-51
2021/03/22 01:49:11;;;;;;;16.00;3.65;;;;;;;;;;5012094;28;20176;-51
2021/03/22 01:51:37;;;;;;;15.48;4.10;;;;;;;;;;5012457;28;20190;-51
2021/03/22 01:54:06;;;;;;;21.73;4.95;;;;;;;;;;5012364;28;20642;-51
2021/03/22 01:56:52;;;;;;;14.23;3.05;;;;;;;;;;5012433;28;20243;-51
2021/03/22 01:59:22;;;;;;;19.67;4.25;;;;;;;;;;5011771;28;20234;-51
2021/03/22 02:01:51;;;;;;;15.90;4.10;;;;;;;;;;5011721;28;20637;-51
2021/03/22 02:04:17;;;;;;;19.60;4.55;;;;;;;;;;5010273;28;20283;-50
2021/03/22 02:06:43;;;;;;;20.10;4.68;;;;;;;;;;5011993;28;20250;-51
2021/03/22 02:09:09;;;;;;;25.10;5.20;;;;;;;;;;5011884;28;20180;-50
2021/03/22 02:11:36;;;;;;;15.13;4.53;;;;;;;;;;5011350;28;20277;-51
2021/03/22 02:14:03;;;;;;;16.92;4.28;;;;;;;;;;5012188;28;20990;-52
2021/03/22 02:16:37;;;;;;;10.77;3.67;;;;;;;;;;5012082;28;20172;-50
2021/03/22 02:19:21;;;;;;;25.92;4.57;;;;;;;;;;5012116;28;20195;-51
2021/03/22 02:21:49;;;;;;;26.45;6.50;;;;;;;;;;5012162;28;20225;-52
2021/03/22 02:24:27;;;;;;;27.20;4.47;;;;;;;;;;5012323;28;20635;-51
2021/03/22 02:26:56;;;;;;;20.65;4.28;;;;;;;;;;5012157;28;20528;-51
2021/03/22 02:29:28;;;;;;;17.35;3.92;;;;;;;;;;5011656;28;20179;-53
2021/03/22 02:32:13;;;;;;;13.25;3.72;;;;;;;;;;5011197;28;20694;-52
2021/03/22 02:34:43;;;;;;;23.40;6.07;;;;;;;;;;5009781;28;20210;-51
2021/03/22 02:37:18;;;;;;;18.45;3.67;;;;;;;;;;5011771;28;20222;-50
2021/03/22 02:40:01;;;;;;;25.52;4.57;;;;;;;;;;5011639;28;20167;-52
2021/03/22 02:42:28;;;;;;;17.95;4.93;;;;;;;;;;5011325;28;20200;-53
2021/03/22 02:44:54;;;;;;;21.02;5.28;;;;;;;;;;5011507;28;20538;-51
2021/03/22 02:47:20;;;;;;;12.93;4.97;;;;;;;;;;5011314;28;20233;-53
2021/03/22 02:49:46;;;;;;;16.20;4.70;;;;;;;;;;5011509;28;20172;-51
2021/03/22 02:52:24;;;;;;;23.98;5.05;;;;;;;;;;5011255;28;20434;-50
2021/03/22 02:55:00;;;;;;;19.20;5.68;;;;;;;;;;5011450;28;20726;-51
2021/03/22 02:57:47;;;;;;;13.48;4.97;;;;;;;;;;5011123;28;20563;-51
2021/03/22 03:00:16;;;;;;;22.25;5.65;;;;;;;;;;5011218;28;20185;-51
2021/03/22 03:02:42;;;;;;;14.02;4.95;;;;;;;;;;5010385;28;20168;-51
2021/03/22 03:05:18;;;;;;;16.88;5.65;;;;;;;;;;5009921;28;20258;-51
2021/03/22 03:07:45;;;;;;;18.80;6.15;;;;;;;;;;5011005;28;20168;-51
2021/03/22 03:10:12;;;;;;;17.67;5.93;;;;;;;;;;5010948;28;20232;-51
2021/03/22 03:12:38;;;;;;;25.42;6.40;;;;;;;;;;5011144;28;20172;-52
2021/03/22 03:15:06;;;;;;;17.67;5.13;;;;;;;;;;5010943;28;20195;-51
2021/03/22 03:17:32;;;;;;;21.08;4.93;;;;;;;;;;5010926;28;20410;-51
2021/03/22 03:19:57;;;;;;;16.00;5.33;;;;;;;;;;5010886;28;20172;-51
2021/03/22 03:22:24;;;;;;;12.40;5.27;;;;;;;;;;5010878;28;20423;-52
2021/03/22 03:24:50;;;;;;;15.63;6.22;;;;;;;;;;5010933;28;20891;-51
2021/03/22 03:27:16;;;;;;;15.70;4.85;;;;;;;;;;5010973;28;20306;-51
2021/03/22 03:29:43;;;;;;;17.48;6.88;;;;;;;;;;5010843;28;20178;-51
2021/03/22 03:32:29;;;;;;;14.57;5.22;;;;;;;;;;5010834;28;20211;-51
2021/03/22 03:34:55;;;;;;;25.33;6.78;;;;;;;;;;5008692;28;20575;-52
2021/03/22 03:37:21;;;;;;;24.40;5.30;;;;;;;;;;5010928;28;20185;-51
2021/03/22 03:39:47;;;;;;;17.23;4.63;;;;;;;;;;5011049;28;20438;-51
2021/03/22 03:42:13;;;;;;;14.73;5.70;;;;;;;;;;5010640;28;20447;-51
2021/03/22 03:44:39;;;;;;;18.70;5.40;;;;;;;;;;5014418;28;20227;-50
2021/03/22 03:47:06;;;;;;;21.20;5.88;;;;;;;;;;5014861;28;20414;-51
2021/03/22 03:49:32;;;;;;;16.60;5.10;;;;;;;;;;5014667;28;20203;-51
2021/03/22 03:51:58;;;;;;;18.73;6.90;;;;;;;;;;5014842;28;20212;-51
2021/03/22 03:54:24;;;;;;;12.43;4.65;;;;;;;;;;5014944;28;21082;-51
2021/03/22 03:56:50;;;;;;;18.27;4.77;;;;;;;;;;5014961;28;20247;-51
2021/03/22 03:59:16;;;;;;;16.10;5.88;;;;;;;;;;5014708;28;20874;-51
2021/03/22 04:01:42;;;;;;;14.50;5.30;;;;;;;;;;5014866;28;20184;-51
2021/03/22 04:04:08;;;;;;;10.93;4.97;;;;;;;;;;5013694;28;20434;-51
2021/03/22 04:06:35;;;;;;;21.50;5.17;;;;;;;;;;5014703;28;20407;-51
2021/03/22 04:09:01;;;;;;;14.07;5.25;;;;;;;;;;5014222;28;20414;-52
2021/03/22 04:11:31;;;;;;;18.40;6.20;;;;;;;;;;5014440;28;20190;-52
2021/03/22 04:13:57;;;;;;;15.48;5.95;;;;;;;;;;5014153;28;20443;-52
2021/03/22 04:16:25;;;;;;;17.05;5.05;;;;;;;;;;5014291;28;20628;-52
2021/03/22 04:18:51;;;;;;;13.88;4.90;;;;;;;;;;5013868;28;20543;-53
2021/03/22 04:21:19;;;;;;;19.10;5.10;;;;;;;;;;5014195;28;20195;-51
2021/03/22 04:23:46;;;;;;;16.05;6.00;;;;;;;;;;5014168;28;20407;-51
2021/03/22 04:26:12;;;;;;;18.77;5.18;;;;;;;;;;5014049;28;20188;-51
2021/03/22 04:28:39;;;;;;;17.20;6.55;;;;;;;;;;5013867;28;20179;-51
2021/03/22 04:31:05;;;;;;;23.17;6.15;;;;;;;;;;5013911;28;20217;-51
2021/03/22 04:33:31;;;;;;;18.73;6.93;;;;;;;;;;5012009;28;20707;-52
2021/03/22 04:35:57;;;;;;;19.40;5.78;;;;;;;;;;5014072;28;20172;-53
2021/03/22 04:38:23;;;;;;;20.63;8.30;;;;;;;;;;5012470;28;20580;-53
2021/03/22 04:40:50;;;;;;;17.88;6.50;;;;;;;;;;5013613;28;20438;-52
2021/03/22 04:43:16;;;;;;;17.55;6.25;;;;;;;;;;5012863;28;20235;-51
2021/03/22 04:45:42;;;;;;;25.23;5.78;;;;;;;;;;5013577;28;20194;-51
2021/03/22 04:48:08;;;;;;;19.02;7.38;;;;;;;;;;5017192;28;20548;-52
2021/03/22 04:50:34;;;;;;;20.88;7.05;;;;;;;;;;5020815;28;20229;-52
2021/03/22 04:53:00;;;;;;;15.45;6.32;;;;;;;;;;5021077;28;20267;-52
2021/03/22 04:55:27;;;;;;;14.57;7.57;;;;;;;;;;5020506;28;20261;-53
2021/03/22 04:57:54;;;;;;;21.33;7.53;;;;;;;;;;5019629;28;20433;-52
2021/03/22 05:00:24;;;;;;;17.25;6.75;;;;;;;;;;5021267;28;20181;-54
2021/03/22 05:02:50;;;;;;;19.88;8.63;;;;;;;;;;5021040;28;20172;-52
2021/03/22 05:05:17;;;;;;;20.88;8.27;;;;;;;;;;5020477;28;20175;-53
2021/03/22 05:07:43;;;;;;;26.95;8.20;;;;;;;;;;5020531;28;20529;-53
2021/03/22 05:10:09;;;;;;;26.88;8.60;;;;;;;;;;5020796;28;20171;-52
2021/03/22 05:12:35;;;;;;;16.52;8.32;;;;;;;;;;5020989;28;20171;-53
2021/03/22 05:15:01;;;;;;;20.40;9.20;;;;;;;;;;5020811;28;20849;-52
2021/03/22 05:17:28;;;;;;;17.50;8.10;;;;;;;;;;5018340;28;22355;-51
2021/03/22 05:19:54;;;;;;;19.52;9.45;;;;;;;;;;5020440;28;20403;-51
2021/03/22 05:22:20;;;;;;;19.50;8.97;;;;;;;;;;5021729;28;20188;-51
2021/03/22 05:24:46;;;;;;;23.52;8.15;;;;;;;;;;5021206;28;20435;-51
2021/03/22 05:27:12;;;;;;;19.77;8.40;;;;;;;;;;5021633;28;20207;-51
2021/03/22 05:29:38;;;;;;;19.30;7.80;;;;;;;;;;5020964;28;20411;-52
2021/03/22 05:32:05;;;;;;;27.70;8.90;;;;;;;;;;5021454;28;20722;-52
2021/03/22 05:34:31;;;;;;;34.00;9.05;;;;;;;;;;5020490;28;20463;-52
2021/03/22 05:36:56;;;;;;;19.53;7.87;;;;;;;;;;5021305;28;20202;-52
2021/03/22 05:39:22;;;;;;;29.97;9.73;;;;;;;;;;5020383;28;20497;-53
2021/03/22 05:42:02;;;;;;;19.67;8.77;;;;;;;;;;5020330;28;20491;-54
2021/03/22 05:44:47;;;;;;;28.40;9.73;;;;;;;;;;5021500;28;20410;-52
2021/03/22 05:47:18;;;;;;;19.13;8.10;;;;;;;;;;5020948;28;20202;-52
2021/03/22 05:50:03;;;;;;;34.92;9.95;;;;;;;;;;5020406;28;20168;-52
2021/03/22 05:52:29;;;;;;;29.67;9.38;;;;;;;;;;5020495;28;20186;-52
2021/03/22 05:55:00;;;;;;;20.67;8.83;;;;;;;;;;5020162;28;20520;-54
2021/03/22 05:57:38;;;;;;;23.90;9.90;;;;;;;;;;5019472;28;20403;-53
2021/03/22 06:00:07;;;;;;;29.55;10.73;;;;;;;;;;5020000;28;20175;-53
2021/03/22 06:02:52;;;;;;;36.22;9.73;;;;;;;;;;5019778;28;20175;-52
2021/03/22 06:05:30;;;;;;;28.83;9.30;;;;;;;;;;5020199;28;20221;-53
2021/03/22 06:07:59;;;;;;;28.25;9.98;;;;;;;;;;5017484;28;20645;-52
2021/03/22 06:10:25;;;;;;;25.85;8.63;;;;;;;;;;5014661;28;20177;-52
2021/03/22 06:12:56;;;;;;;28.10;10.23;;;;;;;;;;5016243;28;20190;-52
2021/03/22 06:15:26;;;;;;;25.15;10.20;;;;;;;;;;5017719;28;20506;-52
2021/03/22 06:17:58;;;;;;;19.00;9.30;;;;;;;;;;5017360;28;20166;-52
2021/03/22 06:20:27;;;;;;;21.33;8.45;;;;;;;;;;5017652;28;20594;-52
2021/03/22 06:23:00;;;;;;;21.55;8.98;;;;;;;;;;5018212;28;20791;-54
2021/03/22 06:25:31;;;;;;;24.23;8.75;;;;;;;;;;5017954;28;20177;-52
2021/03/22 06:28:02;;;;;;;19.92;7.65;;;;;;;;;;5016532;28;20195;-53
2021/03/22 06:30:28;;;;;;;22.85;9.35;;;;;;;;;;5015884;28;20188;-53
2021/03/22 06:32:55;;;;;;;22.90;9.20;;;;;;;;;;5017585;28;20390;-54
2021/03/22 06:35:24;;;;;;;25.55;8.63;;;;;;;;;;5017207;28;20460;-54
2021/03/22 06:37:50;;;;;;;19.65;8.48;;;;;;;;;;5015924;28;20170;-52
2021/03/22 06:40:29;;;;;;;41.33;9.13;;;;;;;;;;5018033;28;20172;-53
2021/03/22 06:43:03;;;;;;;33.85;9.68;;;;;;;;;;5018558;28;20180;-52
2021/03/22 06:45:30;;;;;;;19.45;9.73;;;;;;;;;;5018988;28;20202;-52
2021/03/22 06:48:16;;;;;;;36.35;8.70;;;;;;;;;;5018598;28;20285;-52
2021/03/22 06:50:43;;;;;;;14.98;8.05;;;;;;;;;;5018274;28;20184;-52
2021/03/22 06:53:09;;;;;;;18.73;8.18;;;;;;;;;;5018602;28;20206;-53
2021/03/22 06:55:37;;;;;;;23.92;9.45;;;;;;;;;;5019038;28;20670;-52
2021/03/22 06:58:03;;;;;;;19.05;8.20;;;;;;;;;;5019222;28;20254;-53
2021/03/22 07:00:30;;;;;;;20.00;7.85;;;;;;;;;;5018517;28;20690;-52
2021/03/22 07:02:59;;;;;;;19.52;8.50;;;;;;;;;;5018634;28;20173;-53
2021/03/22 07:05:29;;;;;;;17.40;8.35;;;;;;;;;;5017070;28;20192;-51
2021/03/22 07:07:56;;;;;;;19.98;8.30;;;;;;;;;;5018604;28;20726;-52
2021/03/22 07:10:28;;;;;;;14.77;7.38;;;;;;;;;;5019768;28;20195;-53
2021/03/22 07:13:05;;;;;;;20.10;8.30;;;;;;;;;;5018119;28;20177;-52
2021/03/22 07:15:51;;;;;;;28.23;8.45;;;;;;;;;;5019917;28;20180;-52
2021/03/22 07:18:21;;;;;;;18.50;8.40;;;;;;;;;;5019090;28;20183;-53
2021/03/22 07:21:02;;;;;;;18.90;8.30;;;;;;;;;;5019811;28;20564;-52
2021/03/22 07:23:34;;;;;;;20.42;8.27;;;;;;;;;;5021742;28;20172;-54
2021/03/22 07:26:03;;;;;;;18.58;8.35;;;;;;;;;;5020597;28;20172;-52
2021/03/22 07:28:47;;;;;;;20.45;9.88;;;;;;;;;;5020043;28;20188;-52
2021/03/22 07:31:24;;;;;;;19.30;8.20;;;;;;;;;;5020578;28;20184;-52
2021/03/22 07:33:57;;;;;;;19.48;7.50;;;;;;;;;;5019829;28;20584;-52
2021/03/22 07:36:32;;;;;;;15.73;6.13;;;;;;;;;;5020666;28;20253;-52
2021/03/22 07:39:06;;;;;;;13.27;6.27;;;;;;;;;;5019736;28;20422;-53
2021/03/22 07:41:51;;;;;;;11.80;6.20;;;;;;;;;;5019182;28;20452;-52
2021/03/22 07:44:27;;;;;;;14.93;5.87;;;;;;;;;;5000437;28;20412;-52
2021/03/22 07:46:56;;;;;;;18.57;6.30;;;;;;;;;;5001127;28;20884;-52
2021/03/22 07:49:33;;;;;;;9.70;5.40;;;;;;;;;;4999008;28;20450;-51
2021/03/22 07:52:12;;;;;;;8.00;5.20;;;;;;;;;;4999543;28;20428;-51
2021/03/22 07:54:50;;;;;;;11.23;5.00;;;;;;;;;;5000658;28;20202;-53
2021/03/22 07:57:17;;;;;;;10.77;5.60;;;;;;;;;;5000858;28;20495;-52
2021/03/22 07:59:49;;;;;;;6.57;4.60;;;;;;;;;;5019794;28;21188;-53
2021/03/22 08:02:38;;;;;;;7.13;4.30;;;;;;;;;;5020446;28;20460;-52
2021/03/22 08:05:11;;;;;;;7.00;3.70;;;;;;;;;;5019477;28;20779;-52
2021/03/22 08:07:50;;;;;;;7.73;3.30;;;;;;;;;;5019959;28;20409;-52
2021/03/22 08:10:16;;;;;;;3.93;2.80;;;;;;;;;;5020951;28;20475;-53
2021/03/22 08:12:51;;;;;;;5.47;2.67;;;;;;;;;;5021190;28;20464;-52
2021/03/22 08:15:35;;;;;;;9.40;3.10;;;;;;;;;;5020991;28;20814;-51
2021/03/22 08:18:06;;;;;;;3.60;2.50;;;;;;;;;;5019895;28;20911;-54
2021/03/22 08:20:37;;;;;;;5.70;2.67;;;;;;;;;;5020902;28;20447;-51
2021/03/22 08:23:15;;;;;;;4.07;2.80;;;;;;;;;;5020354;28;20401;-52
2021/03/22 08:25:55;;;;;;;7.57;3.33;;;;;;;;;;5017174;28;20901;-52
2021/03/22 08:28:33;;;;;;;7.00;2.90;;;;;;;;;;5017796;28;20974;-51
2021/03/22 08:31:09;;;;;;;8.37;3.30;;;;;;;;;;5019051;28;20421;-53
2021/03/22 08:33:41;;;;;;;7.87;4.13;;;;;;;;;;5006065;28;20479;-52
2021/03/22 08:36:32;;;;;;;6.53;4.30;;;;;;;;;;5013827;28;20439;-54
2021/03/22 08:39:10;;;;;;;8.13;5.27;;;;;;;;;;5014030;28;20532;-51
2021/03/22 08:41:51;;;;;;;13.10;6.17;;;;;;;;;;5016894;28;20446;-50
2021/03/22 08:44:39;;;;;;;10.17;5.47;;;;;;;;;;5016553;28;20487;-52
2021/03/22 08:47:08;;;;;;;15.75;6.10;;;;;;;;;;5012866;28;20403;-53
2021/03/22 08:49:49;;;;;;;10.25;5.53;;;;;;;;;;5012628;28;20252;-52
2021/03/22 08:52:30;;;;;;;9.55;5.18;;;;;;;;;;5012831;28;20192;-53
2021/03/22 08:55:00;;;;;;;9.82;5.68;;;;;;;;;;5011715;28;20206;-53
2021/03/22 08:57:29;;;;;;;8.55;5.05;;;;;;;;;;5013306;28;20547;-53
2021/03/22 09:00:13;;;;;;;9.45;4.47;;;;;;;;;;5021939;28;20171;-51
2021/03/22 09:02:40;;;;;;;8.98;3.75;;;;;;;;;;5022778;28;20170;-52
2021/03/22 09:05:16;;;;;;;7.22;4.50;;;;;;;;;;5021757;28;20193;-51
2021/03/22 09:07:42;;;;;;;8.23;4.88;;;;;;;;;;5023060;28;20226;-53
2021/03/22 09:10:25;;;;;;;10.57;5.10;;;;;;;;;;5022215;28;20168;-52
2021/03/22 09:12:52;;;;;;;7.18;4.60;;;;;;;;;;5022786;28;20760;-52
2021/03/22 09:15:30;;;;;;;7.33;3.90;;;;;;;;;;5022590;28;20168;-52
2021/03/22 09:18:02;;;;;;;4.93;4.00;;;;;;;;;;5022225;28;20400;-53
2021/03/22 09:20:30;;;;;;;5.90;3.70;;;;;;;;;;5022148;28;20484;-52
2021/03/22 09:22:58;;;;;;;7.63;4.13;;;;;;;;;;5022583;28;20415;-56
2021/03/22 09:25:44;;;;;;;15.43;8.53;;;;;;;;;;5022075;28;20634;-52
2021/03/22 09:28:42;;;;;;;6.50;4.00;;;;;;;;;;5021275;28;20408;-52
2021/03/22 09:31:17;;;;;;;6.40;3.93;;;;;;;;;;4988953;28;20431;-52
2021/03/22 09:33:55;;;;;;;5.97;4.07;;;;;;;;;;5020250;28;20944;-53
2021/03/22 09:36:26;;;;;;;7.20;4.97;;;;;;;;;;5013421;28;20421;-50
2021/03/22 09:38:52;;;;;;;6.37;3.60;;;;;;;;;;5011798;28;20404;-50
2021/03/22 09:41:18;;;;;;;7.33;3.37;;;;;;;;;;5012455;28;20473;-50
2021/03/22 09:43:48;;;;;;;7.73;3.17;;;;;;;;;;5012812;28;20400;-50
2021/03/22 09:46:34;;;;;;;5.43;2.57;;;;;;;;;;5012727;28;20985;-53
2021/03/22 09:49:32;;;;;;;3.83;2.23;;;;;;;;;;5012687;28;20532;-50
2021/03/22 09:52:01;;;;;;;4.33;2.47;;;;;;;;;;4978447;28;20527;-50
2021/03/22 09:54:37;;;;;;;5.27;2.40;;;;;;;;;;5011893;28;20523;-49
2021/03/22 09:57:22;;;;;;;4.80;2.23;;;;;;;;;;5012842;28;20892;-52
2021/03/22 10:00:06;;;;;;;5.00;2.60;;;;;;;;;;5003667;28;20500;-50
2021/03/22 10:02:46;;;;;;;4.47;2.20;;;;;;;;;;5004092;28;20418;-50
2021/03/22 10:05:21;;;;;;;3.13;2.20;;;;;;;;;;5010918;28;20457;-50
2021/03/22 10:07:55;;;;;;;4.30;2.33;;;;;;;;;;5011858;28;20406;-53
2021/03/22 10:10:29;;;;;;;4.90;2.70;;;;;;;;;;5011935;28;20405;-52
2021/03/22 10:13:06;;;;;;;6.53;2.87;;;;;;;;;;5004805;28;21097;-51
2021/03/22 10:15:34;;;;;;;6.03;3.20;;;;;;;;;;4992503;28;20423;-53
2021/03/22 10:18:00;;;;;;;3.10;2.30;;;;;;;;;;4992050;28;20500;-50
2021/03/22 10:20:32;;;;;;;3.60;2.77;;;;;;;;;;4994438;28;21215;-51
2021/03/22 10:23:00;;;;;;;3.83;2.67;;;;;;;;;;5004947;28;20445;-50
2021/03/22 10:25:28;;;;;;;6.40;2.90;;;;;;;;;;4992292;28;21221;-51
2021/03/22 10:28:05;;;;;;;4.77;2.77;;;;;;;;;;4991981;28;20502;-54
2021/03/22 10:30:31;;;;;;;2.73;2.23;;;;;;;;;;4990672;28;20444;-50
2021/03/22 10:32:59;;;;;;;2.70;2.37;;;;;;;;;;4991982;28;20408;-50
2021/03/22 10:35:28;;;;;;;29.27;4.13;;;;;;;;;;4991958;28;20403;-50
2021/03/22 10:37:56;;;;;;;4.10;1.90;;;;;;;;;;4991873;28;20400;-50
2021/03/22 10:40:34;;;;;;;2.50;2.30;;;;;;;;;;4991559;28;20491;-50
2021/03/22 10:43:01;;;;;;;3.60;2.23;;;;;;;;;;4992377;28;20415;-50
2021/03/22 10:45:27;;;;;;;5.50;2.33;;;;;;;;;;5011435;28;20437;-50
2021/03/22 10:47:55;;;;;;;5.27;2.37;;;;;;;;;;5011411;28;20836;-51
2021/03/22 10:50:23;;;;;;;3.87;2.43;;;;;;;;;;5014546;28;20438;-53
2021/03/22 10:53:03;;;;;;;3.20;2.27;;;;;;;;;;5016190;28;20430;-53
2021/03/22 10:55:30;;;;;;;4.50;2.20;;;;;;;;;;5017723;28;20472;-51
2021/03/22 10:57:56;;;;;;;2.83;2.23;;;;;;;;;;5015371;28;20487;-55
2021/03/22 11:00:29;;;;;;;2.13;1.97;;;;;;;;;;4998635;28;20411;-51
2021/03/22 11:02:55;;;;;;;3.37;2.57;;;;;;;;;;4997279;28;20399;-52
2021/03/22 11:05:27;;;;;;;3.10;1.93;;;;;;;;;;4997962;28;20974;-54
2021/03/22 11:07:58;;;;;;;5.60;2.40;;;;;;;;;;4996866;28;20420;-53
2021/03/22 11:10:25;;;;;;;3.67;2.30;;;;;;;;;;4995994;28;20411;-51
2021/03/22 11:12:51;;;;;;;5.40;2.70;;;;;;;;;;4998198;28;20408;-53
2021/03/22 11:15:19;;;;;;;6.43;2.57;;;;;;;;;;4998950;28;20469;-52
2021/03/22 11:17:46;;;;;;;2.50;2.30;;;;;;;;;;4998148;28;20466;-51
2021/03/22 11:20:14;;;;;;;3.50;1.97;;;;;;;;;;4998786;28;20406;-52
2021/03/22 11:22:41;;;;;;;4.37;1.90;;;;;;;;;;5003114;28;20427;-53
2021/03/22 11:25:26;;;;;;;3.50;2.20;;;;;;;;;;5017929;28;20775;-53
2021/03/22 11:27:54;;;;;;;5.30;2.43;;;;;;;;;;5018292;28;20407;-53
2021/03/22 11:30:29;;;;;;;3.30;2.40;;;;;;;;;;5018621;28;20410;-53
2021/03/22 11:32:55;;;;;;;9.40;2.90;;;;;;;;;;5019306;28;20432;-52
2021/03/22 11:35:26;;;;;;;2.53;2.10;;;;;;;;;;5017909;28;21102;-52
2021/03/22 11:37:53;;;;;;;3.27;2.03;;;;;;;;;;5018691;28;20414;-52
2021/03/22 11:40:21;;;;;;;2.67;2.13;;;;;;;;;;5017710;28;20858;-52
2021/03/22 11:42:56;;;;;;;2.43;2.10;;;;;;;;;;5016996;28;20415;-54
2021/03/22 11:45:33;;;;;;;2.00;1.80;;;;;;;;;;5018609;28;20798;-52
2021/03/22 11:48:09;;;;;;;1.50;1.40;;;;;;;;;;5016706;28;20422;-51
2021/03/22 11:50:44;;;;;;;2.80;1.70;;;;;;;;;;5008015;28;20537;-55
2021/03/22 11:53:17;;;;;;;1.67;1.50;;;;;;;;;;5009360;28;20444;-53
2021/03/22 11:55:45;;;;;;;1.73;1.50;;;;;;;;;;5011685;28;20418;-55
2021/03/22 11:58:32;;;;;;;1.90;1.80;;;;;;;;;;5008430;28;20414;-54
2021/03/22 12:01:28;;;;;;;2.20;2.03;;;;;;;;;;5010958;28;20423;-53
2021/03/22 12:04:09;;;;;;;1.80;1.70;;;;;;;;;;5010839;28;20498;-51
2021/03/22 12:06:50;;;;;;;3.60;1.93;;;;;;;;;;4998288;28;20445;-50
2021/03/22 12:09:16;;;;;;;2.00;1.90;;;;;;;;;;5006724;28;20418;-51
2021/03/22 12:11:43;;;;;;;1.90;1.80;;;;;;;;;;5005615;28;20431;-50
2021/03/22 12:14:09;;;;;;;2.40;2.20;;;;;;;;;;5009201;28;20446;-50
2021/03/22 12:16:36;;;;;;;2.00;1.90;;;;;;;;;;5009442;28;20474;-50
2021/03/22 12:19:07;;;;;;;5.37;2.70;;;;;;;;;;5003045;28;20407;-53
2021/03/22 12:21:33;;;;;;;5.27;2.93;;;;;;;;;;5004108;28;20431;-50
2021/03/22 12:24:00;;;;;;;3.03;2.57;;;;;;;;;;5008689;28;20882;-50
2021/03/22 12:26:29;;;;;;;5.30;3.33;;;;;;;;;;5014101;28;20441;-54
2021/03/22 12:28:59;;;;;;;3.07;2.87;;;;;;;;;;5012772;28;20422;-50
2021/03/22 12:31:26;;;;;;;3.00;2.40;;;;;;;;;;5013770;28;20435;-50
2021/03/22 12:33:53;;;;;;;3.93;2.60;;;;;;;;;;5012119;28;20532;-55
2021/03/22 12:36:19;;;;;;;2.60;2.37;;;;;;;;;;5013297;28;20421;-51
2021/03/22 12:38:45;;;;;;;3.13;2.50;;;;;;;;;;5012963;28;20461;-50
2021/03/22 12:41:17;;;;;;;6.50;2.30;;;;;;;;;;5013240;28;20461;-50
2021/03/22 12:43:44;;;;;;;3.53;2.27;;;;;;;;;;5013522;28;20415;-50
2021/03/22 12:46:10;;;;;;;4.03;2.27;;;;;;;;;;5013677;28;20403;-50
2021/03/22 12:48:35;;;;;;;3.47;2.07;;;;;;;;;;5013491;28;20399;-50
2021/03/22 12:51:01;;;;;;;4.30;2.60;;;;;;;;;;5012222;28;20480;-50
2021/03/22 12:53:27;;;;;;;3.77;2.50;;;;;;;;;;5012493;28;20452;-50
2021/03/22 12:55:53;;;;;;;2.40;2.20;;;;;;;;;;5010709;28;21056;-51
2021/03/22 12:58:20;;;;;;;3.13;2.23;;;;;;;;;;5012660;28;20777;-52
2021/03/22 13:00:47;;;;;;;3.60;2.60;;;;;;;;;;5011922;28;20434;-50
2021/03/22 13:03:15;;;;;;;2.50;2.27;;;;;;;;;;5010125;28;20427;-54
2021/03/22 13:05:41;;;;;;;2.50;1.90;;;;;;;;;;5013305;28;20891;-54
2021/03/22 13:08:07;;;;;;;2.43;2.07;;;;;;;;;;5012247;28;20512;-50
2021/03/22 13:10:34;;;;;;;3.13;1.67;;;;;;;;;;4999693;28;20435;-52
2021/03/22 13:13:01;;;;;;;2.03;1.90;;;;;;;;;;4991541;28;20919;-53
2021/03/22 13:15:30;;;;;;;7.53;2.47;;;;;;;;;;4991243;28;20856;-52
2021/03/22 13:17:56;;;;;;;3.67;2.30;;;;;;;;;;4991479;28;20418;-51
2021/03/22 13:20:23;;;;;;;3.80;2.97;;;;;;;;;;4991358;28;20432;-55
2021/03/22 13:22:49;;;;;;;3.73;2.60;;;;;;;;;;4991639;28;20408;-52
2021/03/22 13:25:15;;;;;;;2.87;2.67;;;;;;;;;;4999288;28;20434;-50
2021/03/22 13:27:41;;;;;;;3.23;2.93;;;;;;;;;;5011332;28;20490;-50
2021/03/22 13:30:08;;;;;;;3.23;2.20;;;;;;;;;;5012083;28;20418;-50
2021/03/22 13:32:34;;;;;;;4.47;2.47;;;;;;;;;;5012188;28;20425;-52
2021/03/22 13:35:00;;;;;;;3.43;2.30;;;;;;;;;;5012729;28;20465;-50
2021/03/22 13:37:26;;;;;;;3.30;2.30;;;;;;;;;;5011926;28;20427;-51
2021/03/22 13:39:53;;;;;;;2.50;2.30;;;;;;;;;;5012554;28;20404;-52
2021/03/22 13:42:20;;;;;;;2.07;1.80;;;;;;;;;;5012373;28;20447;-50
2021/03/22 13:44:46;;;;;;;3.20;2.00;;;;;;;;;;5012475;28;20420;-50
2021/03/22 13:47:12;;;;;;;3.13;1.93;;;;;;;;;;5011187;28;20425;-58
2021/03/22 13:49:38;;;;;;;2.50;2.10;;;;;;;;;;5012159;28;20550;-50
2021/03/22 13:52:06;;;;;;;4.97;2.17;;;;;;;;;;5012032;28;20589;-51
2021/03/22 13:54:32;;;;;;;1.83;1.63;;;;;;;;;;5012129;28;20820;-51
2021/03/22 13:56:58;;;;;;;2.80;2.13;;;;;;;;;;5010438;28;20488;-50
2021/03/22 13:59:29;;;;;;;2.00;1.80;;;;;;;;;;5012060;28;20843;-50
2021/03/22 14:01:56;;;;;;;2.63;2.17;;;;;;;;;;5011667;28;20974;-50
2021/03/22 14:04:22;;;;;;;2.93;2.00;;;;;;;;;;5010959;28;20399;-54
2021/03/22 14:06:49;;;;;;;3.53;2.93;;;;;;;;;;5012055;28;20415;-53
2021/03/22 14:09:16;;;;;;;3.80;2.20;;;;;;;;;;4996739;28;20781;-50
2021/03/22 14:11:42;;;;;;;2.77;2.53;;;;;;;;;;4993230;28;20420;-50
2021/03/22 14:14:09;;;;;;;3.60;3.30;;;;;;;;;;5011632;28;20881;-50
2021/03/22 14:16:35;;;;;;;5.63;3.47;;;;;;;;;;5012107;28;20410;-53
2021/03/22 14:19:01;;;;;;;4.73;3.60;;;;;;;;;;5011843;28;20403;-50
2021/03/22 14:21:29;;;;;;;3.93;3.47;;;;;;;;;;5012208;28;20517;-50
2021/03/22 14:23:55;;;;;;;6.10;2.80;;;;;;;;;;5011585;28;20427;-55
2021/03/22 14:26:21;;;;;;;3.07;2.87;;;;;;;;;;5010918;28;20437;-53
2021/03/22 14:28:47;;;;;;;3.03;2.60;;;;;;;;;;5010621;28;20918;-53
2021/03/22 14:31:14;;;;;;;4.03;2.60;;;;;;;;;;5011311;28;20504;-53
2021/03/22 14:33:40;;;;;;;3.80;2.30;;;;;;;;;;4993913;28;20583;-57
2021/03/22 14:36:07;;;;;;;3.70;2.60;;;;;;;;;;5011535;28;20446;-50
2021/03/22 14:38:33;;;;;;;3.03;1.83;;;;;;;;;;5010930;28;20466;-50
2021/03/22 14:40:59;;;;;;;2.30;2.10;;;;;;;;;;5011499;28;20446;-50
2021/03/22 14:43:25;;;;;;;2.23;1.90;;;;;;;;;;5011547;28;20402;-50
2021/03/22 14:45:50;;;;;;;1.93;1.83;;;;;;;;;;5011576;28;20494;-50
2021/03/22 14:48:17;;;;;;;3.23;2.20;;;;;;;;;;5010291;28;20423;-50
2021/03/22 14:50:43;;;;;;;3.60;2.07;;;;;;;;;;5010711;28;20430;-50
2021/03/22 14:53:11;;;;;;;3.40;2.33;;;;;;;;;;5011427;28;20403;-50